Time;durP1;ratioP1;P1;durP2;ratioP2;P2;SDS_P1;SDS_P2;PMS_P1;PMS_P2;Temp;Humidity;BMP_temperature;BMP_pressure;BME280_temperature;BME280_humidity;BME280_pressure;Samples;Min_cycle;Max_cycle;Signal;HPM_P1;HPM_P2
2024/02/05 00:02:08;;;;;;;0.22;0.10;;;;;;;-1.08;68.37;98765.88;5069646;28;20087;-78
2024/02/05 00:04:35;;;;;;;1.30;0.17;;;;;;;-1.07;68.14;98759.00;5070431;28;20418;-74
2024/02/05 00:07:02;;;;;;;1.23;0.10;;;;;;;-1.07;68.29;98762.41;5063599;28;20486;-73
2024/02/05 00:09:31;;;;;;;1.00;0.10;;;;;;;-1.07;67.97;98746.19;5070106;28;20076;-73
2024/02/05 00:11:58;;;;;;;0.45;0.10;;;;;;;-1.06;68.32;98741.03;5065192;28;20040;-73
2024/02/05 00:14:25;;;;;;;1.27;0.10;;;;;;;-1.05;68.14;98744.47;5069045;28;20036;-74
2024/02/05 00:16:54;;;;;;;0.20;0.10;;;;;;;-1.04;68.66;98741.03;5067517;28;20574;-73
2024/02/05 00:19:21;;;;;;;0.10;0.03;;;;;;;-1.05;68.19;98729.06;5070420;28;20494;-73
2024/02/05 00:21:48;;;;;;;2.15;0.10;;;;;;;-1.02;69.07;98731.59;5069473;28;20047;-73
2024/02/05 00:24:15;;;;;;;0.38;0.15;;;;;;;-1.01;68.58;98728.16;5069458;28;20132;-74
2024/02/05 00:26:42;;;;;;;0.30;0.10;;;;;;;-1.00;68.33;98722.19;5069273;28;20076;-74
2024/02/05 00:29:09;;;;;;;0.20;0.10;;;;;;;-0.99;69.14;98713.59;5066923;28;20059;-74
2024/02/05 00:31:37;;;;;;;0.00;0.00;;;;;;;-0.97;69.05;98717.00;5071303;28;20052;-74
2024/02/05 00:34:06;;;;;;;1.00;0.10;;;;;;;-0.97;68.63;98717.00;5068764;28;20537;-75
2024/02/05 00:36:33;;;;;;;0.30;0.13;;;;;;;-0.95;68.24;98717.84;5067375;28;20084;-73
2024/02/05 00:39:00;;;;;;;2.80;0.10;;;;;;;-0.94;68.39;98709.28;5068851;28;20141;-73
2024/02/05 00:41:27;;;;;;;0.20;0.13;;;;;;;-0.91;68.36;98703.28;5068817;28;20079;-72
2024/02/05 00:43:54;;;;;;;1.60;0.10;;;;;;;-0.91;69.21;98701.56;5062447;28;20041;-71
2024/02/05 00:46:22;;;;;;;0.52;0.10;;;;;;;-0.90;69.33;98697.25;5069206;28;20041;-71
2024/02/05 00:48:49;;;;;;;1.35;0.17;;;;;;;-0.88;69.07;98698.94;5066089;28;20047;-72
2024/02/05 00:51:18;;;;;;;0.73;0.13;;;;;;;-0.87;69.11;98695.50;5067197;28;20733;-79
2024/02/05 00:53:45;;;;;;;2.55;0.13;;;;;;;-0.85;68.43;98696.34;5065710;28;20072;-77
2024/02/05 00:56:12;;;;;;;0.55;0.10;;;;;;;-0.84;69.45;98700.59;5067075;28;20476;-77
2024/02/05 00:58:39;;;;;;;1.60;0.10;;;;;;;-0.82;69.38;98704.03;5070856;28;20087;-78
2024/02/05 01:01:06;;;;;;;0.73;0.10;;;;;;;-0.83;68.45;98699.75;5071113;28;20044;-77
2024/02/05 01:03:33;;;;;;;1.52;0.10;;;;;;;-0.79;69.34;98701.41;5070693;28;20051;-78
2024/02/05 01:06:00;;;;;;;0.40;0.10;;;;;;;-0.80;69.43;98693.75;5067842;28;20072;-77
2024/02/05 01:08:28;;;;;;;0.93;0.20;;;;;;;-0.75;69.42;98698.81;5071084;28;20048;-78
2024/02/05 01:10:56;;;;;;;4.15;0.10;;;;;;;-0.74;69.75;98697.94;5068006;28;20160;-77
2024/02/05 01:13:23;;;;;;;0.77;0.10;;;;;;;-0.72;68.93;98699.63;5069238;28;20052;-78
2024/02/05 01:15:50;;;;;;;1.95;0.13;;;;;;;-0.70;68.87;98697.06;5069814;28;20053;-77
2024/02/05 01:18:17;;;;;;;0.35;0.10;;;;;;;-0.69;69.68;98706.47;5071731;28;20076;-77
2024/02/05 01:20:45;;;;;;;2.75;0.10;;;;;;;-0.68;69.82;98703.03;5062208;28;20107;-78
2024/02/05 01:23:11;;;;;;;1.23;0.17;;;;;;;-0.67;69.48;98704.72;5069291;28;20048;-77
2024/02/05 01:25:40;;;;;;;0.40;0.10;;;;;;;-0.66;69.28;98702.16;5067300;28;20072;-77
2024/02/05 01:28:07;;;;;;;1.08;0.10;;;;;;;-0.65;69.48;98698.72;5070569;28;20099;-77
2024/02/05 01:30:34;;;;;;;0.90;0.20;;;;;;;-0.62;69.25;98702.97;5068504;28;20526;-78
2024/02/05 01:33:02;;;;;;;0.82;0.20;;;;;;;-0.62;69.13;98695.28;5071366;28;20091;-77
2024/02/05 01:35:29;;;;;;;0.40;0.13;;;;;;;-0.60;70.09;98706.38;5070488;28;20450;-78
2024/02/05 01:37:56;;;;;;;1.25;0.20;;;;;;;-0.59;70.15;98698.66;5069172;28;20471;-77
2024/02/05 01:40:23;;;;;;;0.65;0.20;;;;;;;-0.57;69.88;98694.34;5069558;28;20459;-79
2024/02/05 01:42:51;;;;;;;0.93;0.20;;;;;;;-0.55;69.82;98702.03;5067660;28;20073;-77
2024/02/05 01:45:18;;;;;;;1.23;0.30;;;;;;;-0.54;70.29;98701.19;5071301;28;20498;-77
2024/02/05 01:47:45;;;;;;;1.02;0.30;;;;;;;-0.51;70.26;98708.00;5069609;28;20128;-77
2024/02/05 01:50:14;;;;;;;1.63;0.30;;;;;;;-0.51;69.30;98701.13;5065356;28;20084;-71
2024/02/05 01:52:46;;;;;;;1.50;0.20;;;;;;;-0.48;70.04;98701.09;5067929;28;20127;-72
2024/02/05 01:55:16;;;;;;;0.82;0.20;;;;;;;-0.46;69.63;98701.06;5064341;28;20048;-71
2024/02/05 01:57:45;;;;;;;1.65;0.20;;;;;;;-0.44;70.34;98702.75;5067734;28;20080;-72
2024/02/05 02:00:14;;;;;;;1.40;0.63;;;;;;;-0.43;70.23;98698.47;5068658;28;20084;-73
2024/02/05 02:02:43;;;;;;;0.40;0.10;;;;;;;-0.42;69.82;98693.31;5062291;28;20080;-73
2024/02/05 02:05:10;;;;;;;1.13;0.63;;;;;;;-0.41;70.26;98692.44;5068019;28;20076;-73
2024/02/05 02:07:38;;;;;;;1.65;0.10;;;;;;;-0.43;70.13;98691.63;5068665;28;20067;-73
2024/02/05 02:10:05;;;;;;;1.25;0.28;;;;;;;-0.40;70.41;98701.03;5064799;28;20107;-73
2024/02/05 02:12:32;;;;;;;1.63;0.10;;;;;;;-0.37;69.85;98706.97;5066036;28;20063;-73
2024/02/05 02:14:59;;;;;;;0.60;0.10;;;;;;;-0.38;70.14;98702.69;5065843;28;20076;-73
2024/02/05 02:17:30;;;;;;;1.83;0.10;;;;;;;-0.34;69.91;98704.38;5068039;28;20087;-73
2024/02/05 02:19:58;;;;;;;3.80;0.10;;;;;;;-0.34;70.33;98706.94;5066601;28;21430;-73
2024/02/05 02:22:48;;;;;;;2.30;0.10;;;;;;;-0.31;69.50;98698.34;5068327;28;20040;-74
2024/02/05 02:25:16;;;;;;;2.05;0.35;;;;;;;-0.29;69.90;98706.84;5066107;28;20052;-73
2024/02/05 02:27:44;;;;;;;0.15;0.05;;;;;;;-0.26;70.51;98716.25;5065114;28;20054;-73
2024/02/05 02:30:14;;;;;;;1.20;0.20;;;;;;;-0.26;69.64;98721.41;5066066;28;20105;-73
2024/02/05 02:32:49;;;;;;;0.10;0.00;;;;;;;-0.24;69.52;98720.50;5063414;28;20076;-73
2024/02/05 02:35:25;;;;;;;1.05;0.10;;;;;;;-0.22;69.90;98717.94;5063891;28;20048;-73
2024/02/05 02:38:00;;;;;;;0.95;0.20;;;;;;;-0.24;70.31;98712.81;5066545;28;20041;-73
2024/02/05 02:40:32;;;;;;;0.17;0.10;;;;;;;-0.18;69.40;98717.00;5065468;28;20422;-74
2024/02/05 02:43:02;;;;;;;2.15;0.17;;;;;;;-0.17;69.72;98723.88;5064398;28;20037;-73
2024/02/05 02:45:31;;;;;;;0.40;0.10;;;;;;;-0.17;69.77;98729.88;5067531;28;20063;-73
2024/02/05 02:47:58;;;;;;;0.50;0.00;;;;;;;-0.15;70.04;98734.97;5065396;28;20445;-73
2024/02/05 02:50:26;;;;;;;0.75;0.10;;;;;;;-0.13;69.82;98730.66;5066858;28;20447;-73
2024/02/05 02:52:53;;;;;;;1.83;0.10;;;;;;;-0.12;69.84;98740.94;5062062;28;20055;-73
2024/02/05 02:55:20;;;;;;;1.02;0.10;;;;;;;-0.11;70.10;98747.78;5065903;28;20805;-73
2024/02/05 02:57:49;;;;;;;0.13;0.03;;;;;;;-0.11;69.93;98740.06;5066945;28;20036;-73
2024/02/05 03:00:17;;;;;;;1.55;0.00;;;;;;;-0.07;69.76;98742.59;5065900;28;20139;-78
2024/02/05 03:02:44;;;;;;;1.67;0.10;;;;;;;-0.08;69.78;98749.47;5060385;28;20075;-78
2024/02/05 03:05:11;;;;;;;0.30;0.10;;;;;;;-0.06;69.85;98755.44;5068769;28;20079;-77
2024/02/05 03:07:38;;;;;;;0.40;0.10;;;;;;;-0.06;70.02;98755.44;5066261;28;20076;-77
2024/02/05 03:10:06;;;;;;;0.80;0.08;;;;;;;-0.08;70.01;98762.31;5066184;28;20084;-73
2024/02/05 03:12:33;;;;;;;0.30;0.00;;;;;;;-0.06;69.58;98760.59;5062016;28;20072;-73
2024/02/05 03:15:02;;;;;;;0.20;0.00;;;;;;;-0.05;69.59;98767.41;5064317;28;20410;-73
2024/02/05 03:17:29;;;;;;;0.85;0.00;;;;;;;-0.12;70.42;98766.66;5063426;28;20104;-73
2024/02/05 03:19:56;;;;;;;0.30;0.10;;;;;;;-0.07;70.47;98771.72;5067887;28;20128;-73
2024/02/05 03:22:23;;;;;;;1.63;0.30;;;;;;;-0.10;70.32;98764.03;5068858;28;20049;-73
2024/02/05 03:24:50;;;;;;;0.47;0.00;;;;;;;-0.07;69.80;98774.28;5072087;28;20071;-73
2024/02/05 03:27:17;;;;;;;6.07;1.23;;;;;;;-0.07;70.16;98774.28;5065857;28;20510;-73
2024/02/05 03:29:42;;;;;;;2.33;0.10;;;;;;;-0.07;70.09;98779.44;5067702;28;20128;-73
2024/02/05 03:32:11;;;;;;;0.20;0.00;;;;;;;-0.09;70.07;98781.16;5068780;28;20771;-74
2024/02/05 03:34:38;;;;;;;0.45;0.00;;;;;;;-0.07;70.28;98778.59;5071433;28;20068;-73
2024/02/05 03:37:05;;;;;;;2.45;0.28;;;;;;;-0.08;70.33;98780.31;5069356;28;20127;-73
2024/02/05 03:39:32;;;;;;;0.13;0.08;;;;;;;-0.13;70.03;98784.66;5063868;28;20076;-73
2024/02/05 03:41:59;;;;;;;3.03;0.00;;;;;;;-0.11;69.83;98788.06;5066655;28;20092;-73
2024/02/05 03:44:27;;;;;;;0.90;0.45;;;;;;;-0.12;70.05;98794.03;5068442;28;20058;-74
2024/02/05 03:46:54;;;;;;;0.10;0.10;;;;;;;-0.12;70.24;98794.03;5067422;28;20044;-74
2024/02/05 03:49:22;;;;;;;0.10;0.10;;;;;;;-0.09;70.06;98804.28;5071139;28;20530;-73
2024/02/05 03:51:49;;;;;;;0.50;0.00;;;;;;;-0.11;70.00;98796.63;5068912;28;20499;-74
2024/02/05 03:54:16;;;;;;;0.43;0.10;;;;;;;-0.10;69.63;98808.59;5068561;28;20096;-73
2024/02/05 03:56:44;;;;;;;2.58;0.28;;;;;;;-0.13;70.13;98811.19;5066700;28;20076;-73
2024/02/05 03:59:10;;;;;;;0.85;0.00;;;;;;;-0.12;70.22;98801.75;5071417;28;20048;-73
2024/02/05 04:01:37;;;;;;;2.03;0.17;;;;;;;-0.11;69.78;98812.03;5064346;28;20052;-73
2024/02/05 04:04:05;;;;;;;0.32;0.00;;;;;;;-0.12;70.05;98812.91;5070790;28;20088;-73
2024/02/05 04:06:34;;;;;;;0.55;0.17;;;;;;;-0.11;70.18;98819.75;5065336;28;20048;-73
2024/02/05 04:09:01;;;;;;;0.10;0.00;;;;;;;-0.10;69.99;98825.72;5068377;28;20047;-73
2024/02/05 04:11:28;;;;;;;0.15;0.00;;;;;;;-0.09;70.04;98824.84;5074386;28;20087;-78
2024/02/05 04:13:55;;;;;;;0.30;0.03;;;;;;;-0.09;69.67;98817.16;5072974;28;20486;-77
2024/02/05 04:16:23;;;;;;;0.52;0.10;;;;;;;-0.10;69.96;98828.31;5073597;28;20072;-78
2024/02/05 04:18:50;;;;;;;1.55;0.10;;;;;;;-0.12;69.84;98827.47;5072903;28;20414;-78
2024/02/05 04:21:17;;;;;;;0.50;0.10;;;;;;;-0.21;70.00;98819.84;5071452;28;20098;-77
2024/02/05 04:23:45;;;;;;;0.90;0.05;;;;;;;-0.11;70.06;98847.19;5071602;28;20132;-77
2024/02/05 04:26:17;;;;;;;0.57;0.57;;;;;;;-0.12;69.87;98848.03;5071515;28;20082;-77
2024/02/05 04:28:44;;;;;;;0.52;0.00;;;;;;;-0.15;69.85;98842.91;5071343;28;20526;-77
2024/02/05 04:31:12;;;;;;;0.10;0.00;;;;;;;-0.13;69.90;98846.34;5064705;28;20071;-77
2024/02/05 04:33:40;;;;;;;0.80;0.00;;;;;;;-0.14;69.79;98847.22;5064576;28;20060;-78
2024/02/05 04:36:10;;;;;;;0.30;0.00;;;;;;;-0.14;70.21;98845.50;5066361;28;20086;-77
2024/02/05 04:38:37;;;;;;;0.90;0.10;;;;;;;-0.15;70.14;98848.06;5069618;28;20040;-78
2024/02/05 04:41:06;;;;;;;1.40;0.90;;;;;;;-0.15;69.67;98848.06;5069489;28;20136;-77
2024/02/05 04:43:33;;;;;;;2.25;0.10;;;;;;;-0.15;69.70;98853.19;5068190;28;20084;-77
2024/02/05 04:46:00;;;;;;;2.72;0.10;;;;;;;-0.17;70.49;98858.38;5070837;28;20075;-77
2024/02/05 04:48:27;;;;;;;1.55;0.10;;;;;;;-0.17;69.71;98860.94;5069810;28;20068;-77
2024/02/05 04:50:55;;;;;;;0.45;0.43;;;;;;;-0.16;70.47;98859.22;5073509;28;20076;-77
2024/02/05 04:53:22;;;;;;;0.55;0.10;;;;;;;-0.17;70.17;98863.50;5071521;28;20072;-78
2024/02/05 04:55:49;;;;;;;0.30;0.00;;;;;;;-0.17;70.12;98870.38;5066406;28;20115;-77
2024/02/05 04:58:17;;;;;;;0.20;0.08;;;;;;;-0.17;69.98;98872.94;5065740;28;20080;-78
2024/02/05 05:00:44;;;;;;;2.20;0.10;;;;;;;-0.17;70.53;98878.09;5072188;28;20119;-77
2024/02/05 05:03:11;;;;;;;0.32;0.05;;;;;;;-0.18;69.78;98876.38;5071851;28;20576;-77
2024/02/05 05:05:38;;;;;;;2.50;0.10;;;;;;;-0.16;70.40;98879.78;5071879;28;20052;-77
2024/02/05 05:08:05;;;;;;;1.23;0.10;;;;;;;-0.17;70.63;98871.22;5073132;28;20095;-77
2024/02/05 05:10:32;;;;;;;0.22;0.08;;;;;;;-0.17;69.72;98884.06;5070666;28;20052;-77
2024/02/05 05:13:03;;;;;;;5.28;0.20;;;;;;;-0.17;70.24;98885.81;5072353;28;20072;-77
2024/02/05 05:15:32;;;;;;;0.15;0.10;;;;;;;-0.17;70.46;98888.38;5068760;28;20483;-77
2024/02/05 05:17:59;;;;;;;0.82;0.17;;;;;;;-0.18;70.00;98884.06;5072338;28;20079;-77
2024/02/05 05:20:26;;;;;;;0.50;0.10;;;;;;;-0.19;70.52;98884.97;5072929;28;20118;-77
2024/02/05 05:22:53;;;;;;;1.65;0.10;;;;;;;-0.20;69.89;98885.84;5072905;28;20137;-76
2024/02/05 05:25:20;;;;;;;1.95;0.10;;;;;;;-0.20;69.99;98890.97;5070745;28;20076;-76
2024/02/05 05:27:47;;;;;;;0.43;0.10;;;;;;;-0.21;70.53;98884.09;5072104;28;20094;-77
2024/02/05 05:30:15;;;;;;;0.20;0.20;;;;;;;-0.22;70.28;98883.25;5069879;28;20072;-74
2024/02/05 05:32:43;;;;;;;0.10;0.00;;;;;;;-0.22;70.36;98884.97;5068214;28;20048;-74
2024/02/05 05:35:10;;;;;;;2.05;0.10;;;;;;;-0.27;69.93;98885.00;5068254;28;20075;-75
2024/02/05 05:37:37;;;;;;;0.70;0.10;;;;;;;-0.24;69.96;98886.72;5070497;28;20589;-74
2024/02/05 05:40:05;;;;;;;0.22;0.10;;;;;;;-0.25;70.11;98887.59;5068180;28;20131;-74
2024/02/05 05:42:32;;;;;;;2.22;0.15;;;;;;;-0.26;69.94;98880.72;5069589;28;20049;-75
2024/02/05 05:44:59;;;;;;;0.35;0.10;;;;;;;-0.28;69.89;98897.91;5067390;28;20135;-75
2024/02/05 05:47:26;;;;;;;1.42;0.10;;;;;;;-0.29;69.97;98899.59;5070304;28;20506;-74
2024/02/05 05:49:54;;;;;;;1.13;0.25;;;;;;;-0.29;69.97;98912.44;5067247;28;20139;-74
2024/02/05 05:52:21;;;;;;;1.02;0.10;;;;;;;-0.30;69.59;98918.44;5069991;28;20152;-74
2024/02/05 05:54:48;;;;;;;2.45;0.10;;;;;;;-0.35;70.00;98913.38;5067627;28;20502;-75
2024/02/05 05:57:16;;;;;;;1.65;0.10;;;;;;;-0.37;69.85;98919.38;5067448;28;20084;-75
2024/02/05 05:59:42;;;;;;;0.15;0.00;;;;;;;-0.37;69.86;98924.53;5069136;28;20546;-74
2024/02/05 06:02:09;;;;;;;0.22;0.00;;;;;;;-0.41;69.41;98933.09;5069105;28;20477;-75
2024/02/05 06:04:37;;;;;;;0.85;0.10;;;;;;;-0.44;69.92;98931.41;5067400;28;20045;-73
2024/02/05 06:07:08;;;;;;;3.60;0.10;;;;;;;-0.44;69.31;98940.84;5067509;28;20558;-75
2024/02/05 06:09:35;;;;;;;0.90;0.00;;;;;;;-0.48;69.65;98941.75;5067889;28;20112;-74
2024/02/05 06:12:03;;;;;;;1.95;0.10;;;;;;;-0.49;69.94;98940.00;5067613;28;20094;-74
2024/02/05 06:14:30;;;;;;;0.03;0.00;;;;;;;-0.52;69.34;98958.88;5068216;28;20155;-73
2024/02/05 06:16:57;;;;;;;1.52;0.13;;;;;;;-0.57;68.98;98964.06;5066860;28;20067;-73
2024/02/05 06:19:24;;;;;;;0.63;0.10;;;;;;;-0.58;69.58;98964.91;5068546;28;20076;-74
2024/02/05 06:21:51;;;;;;;0.40;0.10;;;;;;;-0.63;69.27;98963.22;5067166;28;20080;-74
2024/02/05 06:24:19;;;;;;;2.25;0.10;;;;;;;-0.63;69.18;98976.94;5068833;28;20131;-73
2024/02/05 06:26:47;;;;;;;1.55;0.08;;;;;;;-0.68;69.67;98975.25;5068325;28;20505;-73
2024/02/05 06:29:14;;;;;;;2.45;0.10;;;;;;;-0.67;69.42;98987.22;5066210;28;20120;-72
2024/02/05 06:31:41;;;;;;;0.30;0.05;;;;;;;-0.70;69.41;98987.25;5068969;28;20592;-72
2024/02/05 06:34:08;;;;;;;1.95;0.35;;;;;;;-0.72;69.89;98991.53;5067572;28;20106;-71
2024/02/05 06:36:35;;;;;;;3.72;0.10;;;;;;;-0.75;69.61;98999.25;5067877;28;20103;-71
2024/02/05 06:39:02;;;;;;;0.68;0.10;;;;;;;-0.79;69.51;99006.97;5067613;28;20094;-71
2024/02/05 06:41:33;;;;;;;2.63;0.10;;;;;;;-0.80;69.24;99012.13;5067912;28;20044;-76
2024/02/05 06:44:00;;;;;;;1.65;0.10;;;;;;;-0.83;69.13;99024.97;5068474;28;20052;-76
2024/02/05 06:46:27;;;;;;;0.60;0.10;;;;;;;-0.85;69.33;99030.13;5068339;28;20080;-76
2024/02/05 06:48:54;;;;;;;3.78;0.10;;;;;;;-0.90;69.36;99036.97;5065740;28;20518;-76
2024/02/05 06:51:21;;;;;;;7.63;0.40;;;;;;;-0.92;69.37;99030.16;5069083;28;20561;-77
2024/02/05 06:53:48;;;;;;;1.05;0.10;;;;;;;-0.94;69.67;99037.88;5067847;28;20076;-76
2024/02/05 06:56:15;;;;;;;1.98;0.10;;;;;;;-0.97;70.22;99037.88;5068166;28;20127;-76
2024/02/05 06:58:44;;;;;;;3.13;0.20;;;;;;;-0.99;69.51;99047.28;5068814;28;20129;-76
2024/02/05 07:01:11;;;;;;;0.50;0.20;;;;;;;-1.02;69.33;99053.28;5068645;28;20560;-76
2024/02/05 07:03:38;;;;;;;1.90;0.20;;;;;;;-1.04;69.16;99065.25;5068660;28;20063;-77
2024/02/05 07:06:05;;;;;;;1.45;0.10;;;;;;;-1.06;69.70;99061.88;5068374;28;20072;-77
2024/02/05 07:08:32;;;;;;;0.45;0.13;;;;;;;-1.07;69.63;99069.56;5069093;28;20075;-77
2024/02/05 07:10:59;;;;;;;0.30;0.10;;;;;;;-1.10;69.57;99069.56;5068711;28;20068;-76
2024/02/05 07:13:26;;;;;;;1.23;0.20;;;;;;;-1.12;69.97;99069.56;5067503;28;20161;-76
2024/02/05 07:15:56;;;;;;;0.32;0.10;;;;;;;-1.15;69.54;99068.72;5067787;28;20082;-76
2024/02/05 07:18:23;;;;;;;0.68;0.10;;;;;;;-1.17;69.79;99075.56;5065359;28;20068;-76
2024/02/05 07:20:50;;;;;;;0.80;0.10;;;;;;;-1.19;69.31;99079.88;5068960;28;20080;-76
2024/02/05 07:23:17;;;;;;;1.65;0.20;;;;;;;-1.23;70.29;99084.13;5065222;28;20134;-77
2024/02/05 07:25:44;;;;;;;2.03;0.20;;;;;;;-1.25;69.88;99086.72;5067949;28;20123;-77
2024/02/05 07:28:11;;;;;;;2.08;0.13;;;;;;;-1.27;69.55;99093.56;5066875;28;20060;-76
2024/02/05 07:30:38;;;;;;;4.47;0.10;;;;;;;-1.29;69.68;99096.97;5063875;28;20072;-80
2024/02/05 07:33:06;;;;;;;1.88;0.20;;;;;;;-1.30;70.44;99096.13;5067098;28;20084;-79
2024/02/05 07:35:33;;;;;;;1.17;0.10;;;;;;;-1.32;69.27;99110.66;5067068;28;20132;-78
2024/02/05 07:38:00;;;;;;;0.95;0.20;;;;;;;-1.33;69.82;99118.38;5069097;28;20079;-79
2024/02/05 07:40:27;;;;;;;2.00;0.13;;;;;;;-1.36;69.55;99114.09;5068427;28;20104;-73
2024/02/05 07:42:54;;;;;;;0.45;0.00;;;;;;;-1.36;69.97;99118.38;5063661;28;20056;-75
2024/02/05 07:45:21;;;;;;;1.85;0.00;;;;;;;-1.36;70.30;99118.38;5065158;28;20620;-73
2024/02/05 07:47:48;;;;;;;0.10;0.00;;;;;;;-1.39;70.09;99120.94;5064667;28;20131;-73
2024/02/05 07:50:17;;;;;;;0.30;0.13;;;;;;;-1.40;69.94;99127.78;5066000;28;20079;-75
2024/02/05 07:52:44;;;;;;;1.70;0.10;;;;;;;-1.52;70.12;99120.09;5068014;28;20462;-78
2024/02/05 07:55:11;;;;;;;1.45;0.10;;;;;;;-1.49;69.93;99132.91;5065365;28;20497;-77
2024/02/05 07:57:38;;;;;;;1.10;0.10;;;;;;;-1.43;70.35;99142.31;5066185;28;20076;-76
2024/02/05 08:00:06;;;;;;;1.75;0.10;;;;;;;-1.45;70.38;99144.91;5067952;28;20127;-77
2024/02/05 08:02:34;;;;;;;2.58;0.00;;;;;;;-1.45;70.28;99152.59;5068336;28;20067;-76
2024/02/05 08:05:02;;;;;;;0.22;0.00;;;;;;;-1.46;70.14;99149.19;5067445;28;20037;-78
2024/02/05 08:07:30;;;;;;;0.95;0.10;;;;;;;-1.46;70.42;99163.69;5070453;28;20124;-79
2024/02/05 08:09:57;;;;;;;0.63;0.22;;;;;;;-1.52;70.16;99166.25;5068485;28;20395;-76
2024/02/05 08:12:24;;;;;;;0.80;0.10;;;;;;;-1.47;69.98;99178.22;5070487;28;20079;-78
2024/02/05 08:14:51;;;;;;;3.13;1.05;;;;;;;-1.48;70.35;99176.53;5067909;28;20052;-80
2024/02/05 08:17:18;;;;;;;1.77;0.10;;;;;;;-1.47;69.95;99179.94;5070982;28;20106;-77
2024/02/05 08:19:45;;;;;;;0.30;0.10;;;;;;;-1.47;69.92;99185.06;5070577;28;20080;-76
2024/02/05 08:22:13;;;;;;;2.40;0.10;;;;;;;-1.48;70.26;99178.25;5071038;28;20049;-74
2024/02/05 08:24:41;;;;;;;1.20;0.10;;;;;;;-1.46;69.99;99179.06;5069679;28;20080;-74
2024/02/05 08:27:08;;;;;;;0.15;0.10;;;;;;;-1.51;70.23;99173.97;5069484;28;20079;-73
2024/02/05 08:29:35;;;;;;;2.20;0.10;;;;;;;-1.44;70.08;99182.50;5070580;28;20082;-75
2024/02/05 08:32:03;;;;;;;0.25;0.10;;;;;;;-1.45;70.28;99185.94;5069497;28;20074;-74
2024/02/05 08:34:30;;;;;;;0.25;0.10;;;;;;;-1.43;69.66;99186.78;5070345;28;20604;-77
2024/02/05 08:36:57;;;;;;;0.65;0.00;;;;;;;-1.40;69.82;99199.59;5072131;28;20882;-77
2024/02/05 08:39:24;;;;;;;0.30;0.10;;;;;;;-1.41;69.91;99200.47;5071090;28;20056;-77
2024/02/05 08:41:53;;;;;;;3.78;0.10;;;;;;;-1.38;70.43;99203.03;5071992;28;20091;-76
2024/02/05 08:44:22;;;;;;;1.17;0.10;;;;;;;-1.39;70.32;99200.47;5070512;28;20075;-76
2024/02/05 08:46:49;;;;;;;2.25;0.08;;;;;;;-1.36;70.02;99201.31;5069430;28;20608;-77
2024/02/05 08:49:16;;;;;;;0.10;0.10;;;;;;;-1.35;69.93;99207.31;5071450;28;20080;-76
2024/02/05 08:51:43;;;;;;;0.10;0.10;;;;;;;-1.35;69.79;99213.28;5068953;28;20124;-75
2024/02/05 08:54:10;;;;;;;0.90;0.20;;;;;;;-1.33;69.66;99211.59;5070754;28;20087;-74
2024/02/05 08:56:37;;;;;;;1.00;0.10;;;;;;;-1.32;69.93;99218.41;5069477;28;20423;-75
2024/02/05 08:59:06;;;;;;;1.20;0.10;;;;;;;-1.27;69.95;99232.13;5070160;28;20122;-75
2024/02/05 09:01:33;;;;;;;4.18;0.10;;;;;;;-1.28;70.03;99225.28;5073367;28;20086;-78
2024/02/05 09:04:00;;;;;;;1.75;0.30;;;;;;;-1.23;69.13;99227.81;5072883;28;20075;-79
2024/02/05 09:06:27;;;;;;;1.20;0.10;;;;;;;-1.20;69.15;99232.09;5072552;28;20081;-78
2024/02/05 09:08:54;;;;;;;0.63;0.00;;;;;;;-1.31;69.97;99220.16;5075078;28;20047;-80
2024/02/05 09:11:21;;;;;;;0.20;0.10;;;;;;;-1.18;69.08;99243.25;5073104;28;20078;-80
2024/02/05 09:13:48;;;;;;;2.67;0.20;;;;;;;-1.19;69.38;99244.97;5066591;28;20123;-79
2024/02/05 09:16:17;;;;;;;1.85;0.10;;;;;;;-1.17;69.23;99253.53;5072446;28;20076;-79
2024/02/05 09:18:44;;;;;;;2.45;0.10;;;;;;;-1.15;69.00;99251.78;5071311;28;20079;-80
2024/02/05 09:21:11;;;;;;;4.35;0.15;;;;;;;-1.14;69.18;99256.09;5072197;28;20083;-79
2024/02/05 09:23:38;;;;;;;1.98;0.03;;;;;;;-1.13;69.14;99255.22;5070944;28;20072;-80
2024/02/05 09:26:05;;;;;;;10.05;0.20;;;;;;;-1.11;69.55;99262.94;5072439;28;20132;-84
2024/02/05 09:28:32;;;;;;;0.10;0.00;;;;;;;-1.09;69.92;99262.06;5071139;28;20076;-84
2024/02/05 09:30:59;;;;;;;0.17;0.10;;;;;;;-1.08;69.51;99265.50;5071589;28;20067;-84
2024/02/05 09:33:27;;;;;;;1.17;0.20;;;;;;;-1.07;68.98;99268.03;5070154;28;20083;-78
2024/02/05 09:35:54;;;;;;;0.30;0.10;;;;;;;-1.05;68.55;99274.03;5069536;28;20079;-78
2024/02/05 09:38:23;;;;;;;0.43;0.25;;;;;;;-1.11;69.48;99262.94;5070949;28;20170;-79
2024/02/05 09:40:56;;;;;;;1.05;0.00;;;;;;;-1.03;68.44;99289.44;5071816;28;20486;-78
2024/02/05 09:43:23;;;;;;;0.60;0.10;;;;;;;-1.03;68.83;99279.16;5069197;28;20110;-78
2024/02/05 09:45:53;;;;;;;2.45;0.20;;;;;;;-1.02;68.70;99286.88;5067475;28;20068;-76
2024/02/05 09:48:22;;;;;;;0.80;0.20;;;;;;;-1.02;68.58;99286.03;5070190;28;20080;-76
2024/02/05 09:50:50;;;;;;;1.85;0.10;;;;;;;-1.11;68.35;99283.47;5072439;28;20514;-82
2024/02/05 09:53:18;;;;;;;2.40;0.10;;;;;;;-1.01;68.70;99301.41;5070475;28;20495;-77
2024/02/05 09:55:47;;;;;;;0.30;0.20;;;;;;;-0.99;68.82;99319.41;5070094;28;20079;-78
2024/02/05 09:58:15;;;;;;;3.10;0.10;;;;;;;-0.99;68.60;99311.69;5070723;28;20135;-77
2024/02/05 10:00:42;;;;;;;0.30;0.00;;;;;;;-0.97;68.30;99320.25;5070509;28;20098;-76
2024/02/05 10:03:09;;;;;;;0.17;0.05;;;;;;;-0.97;68.18;99317.69;5066998;28;20127;-75
2024/02/05 10:05:39;;;;;;;4.00;0.10;;;;;;;-0.95;68.71;99325.38;5065018;28;20076;-75
2024/02/05 10:08:07;;;;;;;0.22;0.10;;;;;;;-0.95;67.87;99333.94;5068413;28;20048;-74
2024/02/05 10:10:37;;;;;;;1.80;0.10;;;;;;;-0.93;68.09;99336.53;5067031;28;20399;-74
2024/02/05 10:13:05;;;;;;;1.63;0.10;;;;;;;-0.93;68.51;99332.22;5067619;28;20486;-76
2024/02/05 10:15:33;;;;;;;1.63;0.10;;;;;;;-0.92;67.41;99341.63;5067948;28;20139;-76
2024/02/05 10:18:00;;;;;;;2.90;0.00;;;;;;;-0.91;67.77;99337.38;5069097;28;20596;-75
2024/02/05 10:20:32;;;;;;;2.90;0.10;;;;;;;-0.91;68.07;99343.38;5067390;28;20956;-71
2024/02/05 10:22:59;;;;;;;0.20;0.10;;;;;;;-0.90;68.38;99339.94;5070101;28;20048;-75
2024/02/05 10:25:28;;;;;;;2.08;0.10;;;;;;;-0.89;68.02;99351.06;5067233;28;20075;-75
2024/02/05 10:28:00;;;;;;;1.95;0.15;;;;;;;-0.88;67.72;99350.22;5067933;28;20117;-76
2024/02/05 10:30:28;;;;;;;1.17;0.00;;;;;;;-0.88;67.56;99351.06;5066546;28;20079;-76
2024/02/05 10:32:59;;;;;;;3.03;0.10;;;;;;;-0.88;67.65;99353.66;5068368;28;20491;-76
2024/02/05 10:35:27;;;;;;;0.63;0.10;;;;;;;-0.85;67.37;99363.06;5066780;28;20131;-76
2024/02/05 10:37:54;;;;;;;0.13;0.10;;;;;;;-0.85;67.57;99361.34;5068899;28;20080;-72
2024/02/05 10:40:21;;;;;;;1.65;0.10;;;;;;;-0.87;67.03;99352.78;5067685;28;20514;-73
2024/02/05 10:42:49;;;;;;;0.70;0.03;;;;;;;-0.83;67.40;99356.19;5069651;28;20216;-72
2024/02/05 10:45:16;;;;;;;3.75;0.10;;;;;;;-0.82;67.40;99366.47;5065712;28;20529;-75
2024/02/05 10:47:44;;;;;;;0.85;0.08;;;;;;;-0.81;66.98;99363.03;5068601;28;20124;-75
2024/02/05 10:50:13;;;;;;;0.32;0.30;;;;;;;-0.80;66.95;99367.34;5067512;28;20131;-76
2024/02/05 10:52:41;;;;;;;5.65;0.30;;;;;;;-0.80;67.03;99372.50;5068725;28;20051;-76
2024/02/05 10:55:09;;;;;;;6.28;0.10;;;;;;;-0.79;67.32;99381.88;5067799;28;20075;-74
2024/02/05 10:57:38;;;;;;;0.65;0.10;;;;;;;-0.77;67.16;99374.19;5067377;28;20048;-74
2024/02/05 11:00:08;;;;;;;1.48;0.10;;;;;;;-0.76;67.25;99372.50;5067672;28;20920;-74
2024/02/05 11:02:41;;;;;;;0.60;0.17;;;;;;;-0.74;67.25;99370.75;5066948;28;20059;-75
2024/02/05 11:05:11;;;;;;;0.38;0.10;;;;;;;-0.73;66.67;99368.19;5049003;28;20060;-74
2024/02/05 11:07:47;;;;;;;2.47;0.10;;;;;;;-0.71;66.77;99375.91;5068695;28;20071;-75
2024/02/05 11:10:16;;;;;;;;;;;;;;;-0.71;67.43;99370.78;5068274;28;20127;-74
2024/02/05 11:12:46;;;;;;;1.90;0.30;;;;;;;-0.71;67.08;99375.91;5062842;28;19932;-73
2024/02/05 11:15:22;;;;;;;3.60;0.20;;;;;;;-0.69;67.03;99389.59;5067923;28;20087;-75
2024/02/05 11:17:49;;;;;;;;;;;;;;;-0.68;67.30;99389.63;5064018;28;20080;-76
2024/02/05 11:20:19;;;;;;;1.83;0.10;;;;;;;-0.68;67.17;99393.91;5069787;28;19967;-80
2024/02/05 11:22:47;;;;;;;1.70;0.20;;;;;;;-0.67;67.51;99408.44;5068520;28;20075;-80
2024/02/05 11:25:17;;;;;;;0.90;0.10;;;;;;;-0.66;66.55;99408.47;5070643;28;20045;-80
2024/02/05 11:27:44;;;;;;;0.32;0.05;;;;;;;-0.67;66.64;99408.44;5071155;28;20367;-80
2024/02/05 11:30:15;;;;;;;1.17;0.10;;;;;;;-0.63;66.54;99412.72;5068912;28;20124;-80
2024/02/05 11:32:43;;;;;;;1.23;0.10;;;;;;;-0.62;66.33;99409.31;5072287;28;20056;-80
2024/02/05 11:35:14;;;;;;;3.05;0.10;;;;;;;-0.62;66.80;99411.88;5069206;28;20071;-80
2024/02/05 11:37:44;;;;;;;1.20;0.10;;;;;;;-0.64;66.52;99414.44;5068486;28;20159;-80